createdAt,value
2019-02-22T00:01:32.436Z,29.13
2019-02-22T00:04:03.072Z,26.53
2019-02-22T00:06:33.547Z,25.47
2019-02-22T00:09:05.312Z,27.47
2019-02-22T00:11:35.814Z,25.77
2019-02-22T00:14:06.225Z,26.37
2019-02-22T00:16:36.510Z,27.97
2019-02-22T00:19:07.002Z,27.27
2019-02-22T00:21:37.359Z,28.80
2019-02-22T00:24:07.785Z,27.13
2019-02-22T00:26:38.219Z,29.37
2019-02-22T00:29:08.530Z,29.37
2019-02-22T00:31:39.109Z,31.77
2019-02-22T00:34:09.417Z,31.03
2019-02-22T00:36:40.076Z,29.50
2019-02-22T00:39:10.539Z,32.63
2019-02-22T00:41:41.039Z,32.00
2019-02-22T00:44:11.495Z,31.70
2019-02-22T00:46:41.823Z,30.90
2019-02-22T00:49:12.311Z,31.90
2019-02-22T00:51:42.759Z,32.67
2019-02-22T00:54:13.080Z,33.37
2019-02-22T00:56:43.385Z,31.80
2019-02-22T00:59:13.862Z,34.77
2019-02-22T01:01:44.260Z,34.77
2019-02-22T01:04:14.721Z,42.53
2019-02-22T01:06:45.123Z,53.83
2019-02-22T01:09:15.530Z,54.07
2019-02-22T01:11:45.884Z,54.17
2019-02-22T01:14:16.339Z,42.17
2019-02-22T01:16:46.823Z,32.40
2019-02-22T01:19:17.256Z,32.77
2019-02-22T01:21:47.824Z,34.83
2019-02-22T01:24:18.280Z,33.73
2019-02-22T01:26:48.627Z,34.77
2019-02-22T01:29:19.091Z,34.80
2019-02-22T01:31:49.540Z,34.17
2019-02-22T01:34:19.832Z,33.53
2019-02-22T01:36:50.301Z,33.43
2019-02-22T01:39:20.678Z,34.17
2019-02-22T01:41:51.043Z,34.73
2019-02-22T01:44:25.174Z,33.13
2019-02-22T01:46:55.570Z,34.73
2019-02-22T01:49:25.984Z,34.10
2019-02-22T01:51:56.445Z,34.57
2019-02-22T01:54:26.839Z,33.53
2019-02-22T01:56:57.294Z,35.37
2019-02-22T01:59:27.745Z,33.73
2019-02-22T02:01:58.079Z,32.77
2019-02-22T02:04:28.534Z,35.57
2019-02-22T02:06:58.953Z,33.77
2019-02-22T02:09:29.462Z,31.53
2019-02-22T02:12:01.836Z,33.83
2019-02-22T02:14:32.003Z,33.30
2019-02-22T02:17:02.427Z,32.47
2019-02-22T02:19:32.709Z,33.17
2019-02-22T02:22:03.074Z,32.57
2019-02-22T02:24:33.488Z,34.63
2019-02-22T02:27:03.844Z,34.07
2019-02-22T02:29:34.253Z,33.63
2019-02-22T02:32:04.598Z,35.20
2019-02-22T02:34:35.041Z,33.33
2019-02-22T02:37:05.497Z,34.50
2019-02-22T02:39:35.873Z,34.40
2019-02-22T02:42:06.257Z,34.60
2019-02-22T02:44:36.717Z,36.03
2019-02-22T02:47:07.196Z,37.53
2019-02-22T02:49:37.638Z,37.43
2019-02-22T02:52:08.081Z,37.10
2019-02-22T02:54:38.475Z,38.57
2019-02-22T02:57:08.899Z,37.03
2019-02-22T02:59:39.276Z,36.33
2019-02-22T03:02:17.761Z,36.97
2019-02-22T03:04:48.087Z,35.97
2019-02-22T03:07:36.037Z,35.23
2019-02-22T03:10:07.738Z,34.73
2019-02-22T03:12:38.114Z,36.23
2019-02-22T03:15:10.123Z,35.50
2019-02-22T03:17:40.495Z,35.60
2019-02-22T03:20:11.303Z,34.40
2019-02-22T03:22:41.726Z,35.60
2019-02-22T03:25:12.162Z,36.73
2019-02-22T03:27:42.526Z,34.67
2019-02-22T03:30:13.043Z,35.90
2019-02-22T03:32:43.403Z,34.93
2019-02-22T03:35:13.829Z,34.90
2019-02-22T03:37:44.229Z,34.73
2019-02-22T03:40:14.607Z,36.73
2019-02-22T03:42:45.073Z,37.23
2019-02-22T03:45:15.363Z,39.30
2019-02-22T03:47:45.761Z,36.83
2019-02-22T03:50:16.149Z,38.03
2019-02-22T03:52:50.328Z,40.17
2019-02-22T03:55:20.811Z,41.57
2019-02-22T03:57:51.289Z,45.80
2019-02-22T04:00:21.741Z,48.17
2019-02-22T04:02:52.184Z,46.77
2019-02-22T04:05:22.562Z,46.80
2019-02-22T04:07:52.892Z,49.70
2019-02-22T04:10:23.396Z,49.70
2019-02-22T04:12:53.955Z,50.97
2019-02-22T04:15:24.275Z,50.47
2019-02-22T04:17:54.719Z,50.07
2019-02-22T04:20:25.132Z,50.53
2019-02-22T04:22:55.485Z,49.83
2019-02-22T04:25:25.865Z,48.83
2019-02-22T04:27:56.303Z,49.13
2019-02-22T04:30:26.744Z,48.17
2019-02-22T04:32:57.182Z,50.37
2019-02-22T04:35:27.509Z,48.93
2019-02-22T04:37:57.851Z,49.33
2019-02-22T04:40:28.164Z,49.93
2019-02-22T04:42:58.630Z,50.80
2019-02-22T04:45:28.926Z,49.60
2019-02-22T04:47:59.259Z,49.63
2019-02-22T04:50:29.538Z,47.47
2019-02-22T04:52:59.999Z,51.83
2019-02-22T04:55:30.434Z,49.93
2019-02-22T04:58:00.870Z,48.90
2019-02-22T05:00:31.289Z,54.03
2019-02-22T05:03:01.610Z,51.83
2019-02-22T05:05:31.902Z,50.33
2019-02-22T05:08:02.243Z,52.63
2019-02-22T05:10:32.675Z,54.37
2019-02-22T05:13:03.019Z,55.13
2019-02-22T05:15:33.441Z,51.17
2019-02-22T05:18:03.823Z,54.93
2019-02-22T05:20:34.161Z,54.97
2019-02-22T05:23:07.412Z,55.20
2019-02-22T05:25:36.989Z,55.17
2019-02-22T05:28:07.381Z,53.20
2019-02-22T05:30:37.829Z,54.47
2019-02-22T05:33:08.241Z,52.70
2019-02-22T05:35:38.707Z,50.77
2019-02-22T05:38:09.230Z,48.97
2019-02-22T05:40:39.674Z,51.03
2019-02-22T05:43:09.981Z,52.80
2019-02-22T05:45:40.311Z,49.20
2019-02-22T05:48:10.721Z,51.77
2019-02-22T05:50:41.163Z,52.47
2019-02-22T05:53:11.548Z,53.87
2019-02-22T05:55:44.133Z,49.70
2019-02-22T05:58:14.002Z,49.70
2019-02-22T06:00:44.485Z,54.47
2019-02-22T06:03:15.002Z,54.83
2019-02-22T06:05:45.444Z,51.60
2019-02-22T06:08:15.923Z,50.70
2019-02-22T06:10:46.412Z,49.13
2019-02-22T06:13:16.817Z,50.03
2019-02-22T06:15:47.191Z,49.37
2019-02-22T06:18:17.502Z,48.33
2019-02-22T06:20:48.082Z,47.80
2019-02-22T06:23:18.558Z,49.47
2019-02-22T06:25:49.015Z,47.13
2019-02-22T06:28:19.398Z,46.10
2019-02-22T06:30:49.853Z,44.70
2019-02-22T06:33:20.272Z,45.40
2019-02-22T06:35:50.671Z,44.83
2019-02-22T06:38:20.996Z,44.37
2019-02-22T06:40:51.360Z,45.40
2019-02-22T06:43:21.657Z,48.47
2019-02-22T06:45:52.094Z,45.53
2019-02-22T06:48:22.413Z,46.63
2019-02-22T06:50:52.858Z,48.07
2019-02-22T06:53:23.609Z,46.73
2019-02-22T06:55:53.984Z,44.57
2019-02-22T06:58:24.313Z,48.13
2019-02-22T07:00:54.806Z,44.23
2019-02-22T07:03:25.104Z,43.13
2019-02-22T07:05:55.504Z,42.83
2019-02-22T07:08:26.058Z,46.37
2019-02-22T07:11:18.331Z,43.20
2019-02-22T07:13:48.720Z,42.90
2019-02-22T07:16:19.096Z,43.03
2019-02-22T07:18:50.003Z,42.53
2019-02-22T07:21:20.529Z,42.93
2019-02-22T07:23:50.945Z,41.63
2019-02-22T07:26:21.371Z,42.07
2019-02-22T07:28:51.857Z,41.70
2019-02-22T07:31:22.272Z,42.63
2019-02-22T07:33:52.638Z,42.63
2019-02-22T07:36:23.005Z,43.77
2019-02-22T07:38:53.474Z,44.30
2019-02-22T07:41:23.814Z,39.80
2019-02-22T07:43:54.217Z,41.23
2019-02-22T07:46:24.589Z,39.83
2019-02-22T07:48:55.029Z,41.07
2019-02-22T07:51:25.386Z,42.10
2019-02-22T07:53:55.712Z,40.47
2019-02-22T07:56:26.062Z,41.70
2019-02-22T07:58:56.523Z,39.13
2019-02-22T08:01:27.115Z,38.57
2019-02-22T08:03:57.725Z,39.17
2019-02-22T08:06:28.221Z,37.47
2019-02-22T08:08:58.681Z,37.33
2019-02-22T08:11:29.145Z,37.33
2019-02-22T08:13:59.586Z,37.57
2019-02-22T08:16:30.023Z,36.90
2019-02-22T08:19:01.834Z,35.83
2019-02-22T08:21:32.455Z,35.07
2019-02-22T08:24:02.801Z,33.50
2019-02-22T08:26:33.371Z,35.90
2019-02-22T08:29:03.686Z,32.87
2019-02-22T08:31:34.074Z,33.17
2019-02-22T08:34:04.516Z,33.43
2019-02-22T08:36:34.935Z,34.33
2019-02-22T08:39:05.991Z,32.43
2019-02-22T08:41:36.332Z,33.27
2019-02-22T08:44:06.749Z,34.20
2019-02-22T08:46:37.206Z,46.07
2019-02-22T08:49:07.651Z,42.47
2019-02-22T08:51:38.080Z,34.73
2019-02-22T08:54:08.510Z,34.13
2019-02-22T08:56:38.893Z,33.77
2019-02-22T08:59:09.171Z,33.30
2019-02-22T09:01:39.611Z,33.57
2019-02-22T09:04:09.876Z,33.83
2019-02-22T09:06:40.346Z,31.63
2019-02-22T09:09:11.917Z,33.80
2019-02-22T09:11:42.378Z,32.87
2019-02-22T09:14:12.794Z,34.77
2019-02-22T09:16:43.223Z,34.33
2019-02-22T09:19:13.524Z,32.67
2019-02-22T09:21:43.966Z,31.23
2019-02-22T09:24:14.423Z,30.67
2019-02-22T09:26:44.847Z,30.97
2019-02-22T09:29:15.331Z,30.90
2019-02-22T09:31:45.732Z,31.03
2019-02-22T09:34:16.079Z,31.63
2019-02-22T09:36:46.485Z,31.00
2019-02-22T09:39:16.928Z,31.13
2019-02-22T09:41:47.361Z,29.83
2019-02-22T09:44:17.816Z,67.93
2019-02-22T09:46:48.244Z,60.60
2019-02-22T09:49:18.650Z,40.00
2019-02-22T09:51:48.959Z,29.47
2019-02-22T09:54:19.369Z,27.17
2019-02-22T09:56:50.954Z,27.53
2019-02-22T09:59:21.562Z,27.53
2019-02-22T10:01:52.040Z,26.80
2019-02-22T10:04:22.552Z,26.47
2019-02-22T10:06:52.995Z,26.73
2019-02-22T10:09:23.430Z,25.70
2019-02-22T10:11:53.809Z,26.37
2019-02-22T10:14:24.228Z,26.53
2019-02-22T10:16:54.591Z,25.63
2019-02-22T10:19:25.030Z,24.77
2019-02-22T10:21:57.516Z,25.47
2019-02-22T10:24:27.509Z,27.77
2019-02-22T10:26:57.985Z,25.47
2019-02-22T10:29:28.453Z,25.47
2019-02-22T10:31:59.087Z,25.60
2019-02-22T10:34:29.606Z,25.20
2019-02-22T10:36:59.803Z,28.00
2019-02-22T10:39:31.350Z,67.07
2019-02-22T10:42:01.733Z,45.63
2019-02-22T10:44:32.094Z,27.53
2019-02-22T10:47:02.592Z,25.43
2019-02-22T10:49:32.987Z,23.87
2019-02-22T10:52:03.433Z,25.90
2019-02-22T10:54:33.862Z,23.60
2019-02-22T10:57:04.261Z,23.80
2019-02-22T10:59:34.638Z,23.83
2019-02-22T11:02:05.038Z,22.37
2019-02-22T11:04:35.364Z,22.97
2019-02-22T11:07:05.796Z,22.87
2019-02-22T11:09:36.219Z,23.10
2019-02-22T11:12:09.546Z,23.94
2019-02-22T11:14:39.907Z,22.87
2019-02-22T11:17:10.397Z,23.60
2019-02-22T11:19:40.942Z,20.80
2019-02-22T11:22:11.612Z,21.47
2019-02-22T11:24:42.064Z,20.53
2019-02-22T11:27:12.461Z,20.13
2019-02-22T11:29:42.964Z,19.83
2019-02-22T11:32:13.485Z,18.47
2019-02-22T11:34:43.874Z,18.17
2019-02-22T11:37:14.244Z,16.50
2019-02-22T11:39:44.747Z,16.27
2019-02-22T11:42:15.177Z,16.93
2019-02-22T11:44:45.605Z,16.53
2019-02-22T11:47:16.258Z,13.87
2019-02-22T11:49:46.775Z,13.93
2019-02-22T11:52:17.252Z,13.57
2019-02-22T11:54:48.202Z,14.40
2019-02-22T11:57:19.605Z,12.63
2019-02-22T11:59:50.144Z,13.93
2019-02-22T12:02:20.591Z,13.67
2019-02-22T12:04:50.971Z,13.47
2019-02-22T12:07:21.506Z,13.87
2019-02-22T12:09:51.820Z,26.17
2019-02-22T12:12:22.221Z,25.08
2019-02-22T12:14:52.626Z,15.87
2019-02-22T12:17:22.965Z,17.60
2019-02-22T12:19:53.403Z,17.15
2019-02-22T12:22:23.835Z,16.50
2019-02-22T12:24:54.226Z,17.20
2019-02-22T12:27:24.559Z,15.50
2019-02-22T12:29:55.082Z,26.97
2019-02-22T12:32:25.418Z,52.23
2019-02-22T12:34:55.863Z,16.37
2019-02-22T12:37:26.331Z,14.13
2019-02-22T12:39:56.719Z,14.43
2019-02-22T12:42:27.187Z,13.77
2019-02-22T12:45:02.973Z,13.60
2019-02-22T12:47:29.667Z,14.87
2019-02-22T12:50:00.144Z,14.33
2019-02-22T12:52:30.550Z,14.07
2019-02-22T12:55:00.960Z,15.03
2019-02-22T12:57:31.346Z,15.10
2019-02-22T13:00:01.813Z,16.00
2019-02-22T13:02:32.232Z,17.33
2019-02-22T13:05:02.743Z,15.73
2019-02-22T13:07:33.273Z,18.17
2019-02-22T13:10:03.594Z,16.00
2019-02-22T13:12:34.031Z,20.53
2019-02-22T13:15:13.653Z,17.07
2019-02-22T13:17:36.868Z,15.83
2019-02-22T13:20:08.234Z,15.10
2019-02-22T13:22:38.795Z,15.83
2019-02-22T13:25:09.438Z,14.47
2019-02-22T13:27:39.881Z,15.13
2019-02-22T13:30:11.745Z,11.70
2019-02-22T13:32:42.379Z,10.93
2019-02-22T13:35:13.027Z,11.50
2019-02-22T13:37:43.492Z,10.90
2019-02-22T13:40:14.790Z,10.10
2019-02-22T13:42:45.194Z,11.63
2019-02-22T13:45:26.185Z,10.37
2019-02-22T13:47:48.030Z,10.33
2019-02-22T13:50:18.418Z,10.33
2019-02-22T13:52:48.843Z,9.80
2019-02-22T13:55:19.232Z,10.63
2019-02-22T13:57:49.677Z,9.27
2019-02-22T14:00:20.174Z,10.83
2019-02-22T14:02:50.829Z,9.83
2019-02-22T14:05:21.277Z,10.50
2019-02-22T14:07:55.875Z,10.50
2019-02-22T14:10:26.700Z,11.27
2019-02-22T14:12:57.156Z,10.60
2019-02-22T14:15:37.534Z,11.73
2019-02-22T14:17:59.726Z,9.40
2019-02-22T14:20:30.132Z,10.33
2019-02-22T14:23:00.521Z,10.73
2019-02-22T14:25:30.914Z,9.83
2019-02-22T14:28:01.327Z,10.03
2019-02-22T14:30:31.690Z,10.10
2019-02-22T14:33:02.194Z,9.23
2019-02-22T14:35:32.691Z,7.00
2019-02-22T14:38:03.167Z,6.63
2019-02-22T14:40:33.615Z,6.23
2019-02-22T14:43:04.145Z,6.80
2019-02-22T14:45:34.637Z,6.97
2019-02-22T14:48:05.039Z,7.40
2019-02-22T14:50:35.655Z,7.60
2019-02-22T14:53:06.159Z,9.10
2019-02-22T14:55:36.447Z,9.23
2019-02-22T14:58:06.950Z,9.30
2019-02-22T15:00:37.398Z,10.13
2019-02-22T15:03:07.785Z,10.30
2019-02-22T15:05:38.263Z,11.33
2019-02-22T15:08:08.721Z,11.20
2019-02-22T15:10:39.099Z,12.07
2019-02-22T15:13:12.513Z,10.43
2019-02-22T15:16:03.647Z,9.80
2019-02-22T15:18:32.751Z,9.90
2019-02-22T15:21:03.102Z,8.67
2019-02-22T15:23:33.400Z,7.80
2019-02-22T15:26:03.803Z,8.63
2019-02-22T15:28:34.180Z,5.93
2019-02-22T15:31:04.857Z,5.20
2019-02-22T15:33:35.352Z,7.57
2019-02-22T15:36:06.561Z,7.40
2019-02-22T15:38:36.892Z,6.33
2019-02-22T15:41:09.399Z,6.37
2019-02-22T15:43:39.489Z,5.80
2019-02-22T15:46:12.491Z,5.73
2019-02-22T15:48:42.027Z,5.23
2019-02-22T15:51:13.164Z,4.73
2019-02-22T15:53:44.077Z,4.40
2019-02-22T15:56:14.511Z,3.70
2019-02-22T15:58:46.322Z,4.87
2019-02-22T16:01:16.697Z,5.03
2019-02-22T16:04:12.026Z,4.93
2019-02-22T16:06:42.433Z,4.60
2019-02-22T16:09:13.054Z,4.70
2019-02-22T16:11:43.405Z,4.30
2019-02-22T16:14:13.726Z,5.10
2019-02-22T16:16:44.194Z,4.53
2019-02-22T16:19:14.669Z,4.30
2019-02-22T16:21:45.116Z,4.47
2019-02-22T16:24:15.430Z,4.50
2019-02-22T16:26:45.741Z,5.17
2019-02-22T16:29:16.098Z,5.53
2019-02-22T16:31:46.549Z,4.47
2019-02-22T16:34:16.982Z,4.30
2019-02-22T16:36:47.429Z,4.23
2019-02-22T16:39:17.756Z,3.60
2019-02-22T16:41:48.043Z,3.70
2019-02-22T16:44:18.440Z,3.43
2019-02-22T16:46:48.793Z,3.87
2019-02-22T16:49:19.272Z,4.63
2019-02-22T16:51:49.822Z,3.93
2019-02-22T16:54:20.192Z,4.20
2019-02-22T16:56:50.612Z,4.40
2019-02-22T16:59:21.917Z,3.90
2019-02-22T17:01:52.336Z,4.40
2019-02-22T17:04:22.786Z,4.30
2019-02-22T17:06:53.098Z,4.73
2019-02-22T17:09:23.564Z,10.17
2019-02-22T17:11:54.015Z,31.17
2019-02-22T17:14:24.493Z,10.73
2019-02-22T17:16:54.985Z,8.47
2019-02-22T17:19:25.319Z,5.60
2019-02-22T17:21:55.626Z,6.43
2019-02-22T17:24:26.051Z,6.13
2019-02-22T17:26:56.435Z,4.57
2019-02-22T17:29:26.874Z,4.43
2019-02-22T17:31:57.282Z,5.80
2019-02-22T17:34:27.736Z,4.73
2019-02-22T17:36:58.066Z,4.87
2019-02-22T17:39:28.404Z,5.43
2019-02-22T17:41:58.880Z,5.50
2019-02-22T17:44:29.131Z,5.57
2019-02-22T17:46:59.540Z,5.67
2019-02-22T17:49:29.962Z,5.17
2019-02-22T17:52:00.175Z,4.77
2019-02-22T17:54:30.593Z,4.03
2019-02-22T17:57:00.938Z,4.00
2019-02-22T17:59:31.326Z,4.10
2019-02-22T18:02:01.707Z,4.33
2019-02-22T18:04:32.056Z,4.47
2019-02-22T18:07:02.416Z,4.17
2019-02-22T18:09:32.930Z,4.73
2019-02-22T18:12:03.316Z,4.73
2019-02-22T18:14:33.725Z,4.87
2019-02-22T18:17:08.413Z,4.80
2019-02-22T18:19:36.140Z,4.50
2019-02-22T18:22:06.585Z,4.60
2019-02-22T18:24:37.025Z,5.50
2019-02-22T18:27:07.361Z,4.60
2019-02-22T18:29:37.905Z,4.83
2019-02-22T18:32:08.350Z,4.73
2019-02-22T18:34:38.797Z,4.53
2019-02-22T18:37:09.185Z,4.50
2019-02-22T18:39:39.656Z,4.67
2019-02-22T18:42:10.101Z,4.40
2019-02-22T18:44:40.547Z,3.93
2019-02-22T18:47:19.026Z,4.30
2019-02-22T18:49:43.015Z,4.70
2019-02-22T18:52:13.346Z,3.43
2019-02-22T18:54:46.171Z,3.80
2019-02-22T18:57:15.983Z,3.53
2019-02-22T18:59:46.402Z,3.57
2019-02-22T19:02:16.938Z,3.50
2019-02-22T19:04:47.277Z,3.50
2019-02-22T19:07:17.796Z,3.20
2019-02-22T19:09:48.355Z,2.83
2019-02-22T19:12:18.786Z,3.43
2019-02-22T19:14:49.077Z,10.53
2019-02-22T19:17:29.893Z,3.77
2019-02-22T19:19:51.682Z,4.33
2019-02-22T19:22:22.110Z,4.93
2019-02-22T19:24:52.634Z,5.47
2019-02-22T19:27:23.057Z,5.40
2019-02-22T19:29:53.448Z,6.07
2019-02-22T19:32:23.898Z,6.13
2019-02-22T19:34:54.591Z,6.47
2019-02-22T19:37:26.046Z,6.50
2019-02-22T19:39:56.451Z,6.57
2019-02-22T19:42:26.933Z,7.20
2019-02-22T19:44:57.383Z,6.80
2019-02-22T19:47:27.703Z,6.87
2019-02-22T19:49:58.124Z,7.97
2019-02-22T19:52:28.460Z,7.37
2019-02-22T19:54:58.782Z,7.70
2019-02-22T19:57:29.222Z,8.20
2019-02-22T19:59:59.716Z,8.70
2019-02-22T20:02:30.145Z,7.97
2019-02-22T20:05:00.493Z,9.17
2019-02-22T20:07:30.749Z,9.83
2019-02-22T20:10:02.982Z,8.70
2019-02-22T20:12:33.491Z,9.53
2019-02-22T20:15:04.193Z,8.70
2019-02-22T20:17:34.672Z,8.83
2019-02-22T20:20:06.003Z,8.90
2019-02-22T20:22:36.288Z,8.87
2019-02-22T20:25:07.190Z,9.33
2019-02-22T20:27:37.692Z,8.90
2019-02-22T20:30:10.595Z,13.63
2019-02-22T20:32:41.122Z,13.10
2019-02-22T20:35:15.065Z,9.83
2019-02-22T20:37:52.611Z,9.83
2019-02-22T20:40:17.569Z,9.33
2019-02-22T20:42:48.000Z,8.80
2019-02-22T20:45:18.414Z,9.30
2019-02-22T20:47:48.826Z,9.50
2019-02-22T20:50:19.121Z,9.80
2019-02-22T20:52:49.573Z,9.73
2019-02-22T20:55:19.992Z,9.70
2019-02-22T20:57:50.412Z,10.80
2019-02-22T21:00:20.843Z,10.07
2019-02-22T21:02:51.216Z,9.47
2019-02-22T21:05:21.633Z,10.90
2019-02-22T21:07:52.163Z,12.17
2019-02-22T21:10:22.561Z,11.33
2019-02-22T21:12:52.956Z,10.13
2019-02-22T21:15:23.463Z,10.30
2019-02-22T21:17:53.766Z,10.10
2019-02-22T21:20:24.186Z,9.90
2019-02-22T21:22:54.579Z,8.50
2019-02-22T21:25:24.918Z,8.60
2019-02-22T21:27:55.439Z,9.50
2019-02-22T21:30:25.892Z,8.20
2019-02-22T21:32:57.638Z,8.67
2019-02-22T21:35:27.960Z,8.33
2019-02-22T21:37:58.290Z,8.73
2019-02-22T21:40:28.620Z,8.17
2019-02-22T21:42:59.055Z,8.00
2019-02-22T21:45:29.893Z,7.97
2019-02-22T21:48:00.372Z,7.63
2019-02-22T21:50:30.808Z,7.53
2019-02-22T21:53:01.279Z,7.10
2019-02-22T21:55:31.650Z,7.43
2019-02-22T21:58:02.089Z,7.13
2019-02-22T22:00:32.911Z,7.60
2019-02-22T22:03:03.464Z,68.13
2019-02-22T22:05:34.128Z,12.13
2019-02-22T22:08:04.606Z,7.73
2019-02-22T22:10:34.939Z,8.57
2019-02-22T22:13:05.477Z,9.30
2019-02-22T22:15:35.787Z,8.30
2019-02-22T22:18:06.197Z,8.30
2019-02-22T22:20:36.574Z,9.37
2019-02-22T22:23:07.068Z,9.57
2019-02-22T22:25:37.457Z,8.57
2019-02-22T22:28:07.909Z,8.50
2019-02-22T22:30:38.338Z,9.10
2019-02-22T22:33:08.781Z,7.80
2019-02-22T22:35:39.212Z,7.37
2019-02-22T22:38:09.704Z,7.53
2019-02-22T22:40:40.145Z,7.67
2019-02-22T22:43:10.547Z,8.27
2019-02-22T22:45:40.862Z,7.50
2019-02-22T22:48:11.296Z,7.97
2019-02-22T22:50:41.721Z,8.13
2019-02-22T22:53:12.114Z,8.17
2019-02-22T22:55:42.400Z,7.53
2019-02-22T22:58:12.833Z,8.27
2019-02-22T23:01:24.964Z,8.20
2019-02-22T23:03:55.496Z,8.10
2019-02-22T23:06:25.942Z,8.50
2019-02-22T23:08:56.408Z,8.27
2019-02-22T23:11:26.866Z,8.27
2019-02-22T23:13:57.160Z,7.83
2019-02-22T23:16:27.498Z,7.53
2019-02-22T23:19:01.947Z,7.43
2019-02-22T23:21:30.290Z,9.10
2019-02-22T23:24:00.663Z,8.43
2019-02-22T23:26:31.166Z,8.67
2019-02-22T23:29:01.972Z,7.77
2019-02-22T23:31:32.600Z,7.73
2019-02-22T23:34:03.028Z,8.53
2019-02-22T23:36:33.480Z,8.70
2019-02-22T23:39:04.942Z,8.20
2019-02-22T23:41:35.378Z,8.77
2019-02-22T23:44:06.036Z,8.37
2019-02-22T23:46:36.517Z,9.30
2019-02-22T23:49:13.112Z,8.60
2019-02-22T23:51:39.255Z,9.40
2019-02-22T23:54:09.594Z,9.07
2019-02-22T23:56:39.949Z,9.07
2019-02-22T23:59:10.380Z,9.73
